sensor_id;sensor_type;location;lat;lon;timestamp;temperature;humidity
1383;DHT22;685;47.196;11.880;2022-08-03T00:00:20;18.80;99.90
1383;DHT22;685;47.196;11.880;2022-08-03T00:02:48;18.80;99.90
1383;DHT22;685;47.196;11.880;2022-08-03T00:05:15;18.80;99.90
1383;DHT22;685;47.196;11.880;2022-08-03T00:07:44;18.80;99.90
1383;DHT22;685;47.196;11.880;2022-08-03T00:10:12;18.80;99.90
1383;DHT22;685;47.196;11.880;2022-08-03T00:12:39;18.70;99.90
1383;DHT22;685;47.196;11.880;2022-08-03T00:15:07;18.70;99.90
1383;DHT22;685;47.196;11.880;2022-08-03T00:17:34;18.60;99.90
1383;DHT22;685;47.196;11.880;2022-08-03T00:20:01;18.60;99.90
1383;DHT22;685;47.196;11.880;2022-08-03T00:22:28;18.60;99.90
1383;DHT22;685;47.196;11.880;2022-08-03T00:24:56;18.50;99.90
1383;DHT22;685;47.196;11.880;2022-08-03T00:27:23;18.50;99.90
1383;DHT22;685;47.196;11.880;2022-08-03T00:29:50;18.60;99.90
1383;DHT22;685;47.196;11.880;2022-08-03T00:32:17;18.40;99.90
1383;DHT22;685;47.196;11.880;2022-08-03T00:34:44;18.50;99.90
1383;DHT22;685;47.196;11.880;2022-08-03T00:37:11;18.40;99.90
1383;DHT22;685;47.196;11.880;2022-08-03T00:39:38;18.40;99.90
1383;DHT22;685;47.196;11.880;2022-08-03T00:42:09;18.30;99.90
1383;DHT22;685;47.196;11.880;2022-08-03T00:44:38;18.20;99.90
1383;DHT22;685;47.196;11.880;2022-08-03T00:47:06;18.20;99.90
1383;DHT22;685;47.196;11.880;2022-08-03T00:49:35;18.20;99.90
1383;DHT22;685;47.196;11.880;2022-08-03T00:52:02;18.20;99.90
1383;DHT22;685;47.196;11.880;2022-08-03T00:54:30;18.30;99.90
1383;DHT22;685;47.196;11.880;2022-08-03T00:56:57;18.30;99.90
1383;DHT22;685;47.196;11.880;2022-08-03T00:59:26;18.30;99.90
1383;DHT22;685;47.196;11.880;2022-08-03T01:01:53;18.30;99.90
1383;DHT22;685;47.196;11.880;2022-08-03T01:04:20;18.30;99.90
1383;DHT22;685;47.196;11.880;2022-08-03T01:06:49;18.40;99.90
1383;DHT22;685;47.196;11.880;2022-08-03T01:09:22;18.40;99.90
1383;DHT22;685;47.196;11.880;2022-08-03T01:12:00;18.30;99.90
1383;DHT22;685;47.196;11.880;2022-08-03T01:14:33;18.20;99.90
1383;DHT22;685;47.196;11.880;2022-08-03T01:17:09;18.20;99.90
1383;DHT22;685;47.196;11.880;2022-08-03T01:19:45;18.00;99.90
1383;DHT22;685;47.196;11.880;2022-08-03T01:22:36;17.90;99.90
1383;DHT22;685;47.196;11.880;2022-08-03T01:25:12;18.00;99.90
1383;DHT22;685;47.196;11.880;2022-08-03T01:27:50;17.90;99.90
1383;DHT22;685;47.196;11.880;2022-08-03T01:30:23;18.00;99.90
1383;DHT22;685;47.196;11.880;2022-08-03T01:32:56;17.90;99.90
1383;DHT22;685;47.196;11.880;2022-08-03T01:35:28;18.00;99.90
1383;DHT22;685;47.196;11.880;2022-08-03T01:38:02;18.10;99.90
1383;DHT22;685;47.196;11.880;2022-08-03T01:40:31;18.00;99.90
1383;DHT22;685;47.196;11.880;2022-08-03T01:43:01;17.90;99.90
1383;DHT22;685;47.196;11.880;2022-08-03T01:45:30;17.90;99.90
1383;DHT22;685;47.196;11.880;2022-08-03T01:47:58;17.90;99.90
1383;DHT22;685;47.196;11.880;2022-08-03T01:50:28;17.90;99.90
1383;DHT22;685;47.196;11.880;2022-08-03T01:52:57;18.00;99.90
1383;DHT22;685;47.196;11.880;2022-08-03T01:55:25;18.00;99.90
1383;DHT22;685;47.196;11.880;2022-08-03T01:57:54;18.00;99.90
1383;DHT22;685;47.196;11.880;2022-08-03T02:00:23;18.00;99.90
1383;DHT22;685;47.196;11.880;2022-08-03T02:02:53;18.00;99.90
1383;DHT22;685;47.196;11.880;2022-08-03T02:05:22;18.00;99.90
1383;DHT22;685;47.196;11.880;2022-08-03T02:07:51;18.00;99.90
1383;DHT22;685;47.196;11.880;2022-08-03T02:10:19;18.00;99.90
1383;DHT22;685;47.196;11.880;2022-08-03T02:12:47;17.90;99.90
1383;DHT22;685;47.196;11.880;2022-08-03T02:15:15;17.90;99.90
1383;DHT22;685;47.196;11.880;2022-08-03T02:17:45;17.90;99.90
1383;DHT22;685;47.196;11.880;2022-08-03T02:20:14;17.90;99.90
1383;DHT22;685;47.196;11.880;2022-08-03T02:22:42;17.80;99.90
1383;DHT22;685;47.196;11.880;2022-08-03T02:25:12;17.90;99.90
1383;DHT22;685;47.196;11.880;2022-08-03T02:27:43;17.80;99.90
1383;DHT22;685;47.196;11.880;2022-08-03T02:30:12;17.90;99.90
1383;DHT22;685;47.196;11.880;2022-08-03T02:32:43;17.90;99.90
1383;DHT22;685;47.196;11.880;2022-08-03T02:35:16;17.90;99.90
1383;DHT22;685;47.196;11.880;2022-08-03T02:37:47;17.80;99.90
1383;DHT22;685;47.196;11.880;2022-08-03T02:40:17;17.80;99.90
1383;DHT22;685;47.196;11.880;2022-08-03T02:42:46;17.70;99.90
1383;DHT22;685;47.196;11.880;2022-08-03T02:45:15;17.60;99.90
1383;DHT22;685;47.196;11.880;2022-08-03T02:47:45;17.60;99.90
1383;DHT22;685;47.196;11.880;2022-08-03T02:50:16;17.70;99.90
1383;DHT22;685;47.196;11.880;2022-08-03T02:52:45;17.70;99.90
1383;DHT22;685;47.196;11.880;2022-08-03T02:55:14;17.70;99.90
1383;DHT22;685;47.196;11.880;2022-08-03T02:57:42;17.70;99.90
1383;DHT22;685;47.196;11.880;2022-08-03T03:00:12;17.70;99.90
1383;DHT22;685;47.196;11.880;2022-08-03T03:02:40;17.70;99.90
1383;DHT22;685;47.196;11.880;2022-08-03T03:05:09;17.70;99.90
1383;DHT22;685;47.196;11.880;2022-08-03T03:07:39;17.70;99.90
1383;DHT22;685;47.196;11.880;2022-08-03T03:10:07;17.70;99.90
1383;DHT22;685;47.196;11.880;2022-08-03T03:12:36;17.70;99.90
1383;DHT22;685;47.196;11.880;2022-08-03T03:15:05;17.70;99.90
1383;DHT22;685;47.196;11.880;2022-08-03T03:17:33;17.70;99.90
1383;DHT22;685;47.196;11.880;2022-08-03T03:20:00;17.60;99.90
1383;DHT22;685;47.196;11.880;2022-08-03T03:22:29;17.60;99.90
1383;DHT22;685;47.196;11.880;2022-08-03T03:24:58;17.50;99.90
1383;DHT22;685;47.196;11.880;2022-08-03T03:27:25;17.50;99.90
1383;DHT22;685;47.196;11.880;2022-08-03T03:29:52;17.60;99.90
1383;DHT22;685;47.196;11.880;2022-08-03T03:32:19;17.50;99.90
1383;DHT22;685;47.196;11.880;2022-08-03T03:34:47;17.50;99.90
1383;DHT22;685;47.196;11.880;2022-08-03T03:37:14;17.50;99.90
1383;DHT22;685;47.196;11.880;2022-08-03T03:39:41;17.50;99.90
1383;DHT22;685;47.196;11.880;2022-08-03T03:42:09;17.50;99.90
1383;DHT22;685;47.196;11.880;2022-08-03T03:44:36;17.50;99.90
1383;DHT22;685;47.196;11.880;2022-08-03T03:47:03;17.50;99.90
1383;DHT22;685;47.196;11.880;2022-08-03T03:49:31;17.50;99.90
1383;DHT22;685;47.196;11.880;2022-08-03T03:51:58;17.50;99.90
1383;DHT22;685;47.196;11.880;2022-08-03T03:54:25;17.50;99.90
1383;DHT22;685;47.196;11.880;2022-08-03T03:56:52;17.40;99.90
1383;DHT22;685;47.196;11.880;2022-08-03T03:59:20;17.40;99.90
1383;DHT22;685;47.196;11.880;2022-08-03T04:01:47;17.50;99.90
1383;DHT22;685;47.196;11.880;2022-08-03T04:04:14;17.40;99.90
1383;DHT22;685;47.196;11.880;2022-08-03T04:06:59;17.40;99.90
1383;DHT22;685;47.196;11.880;2022-08-03T04:09:45;17.40;99.90
1383;DHT22;685;47.196;11.880;2022-08-03T04:12:30;17.50;99.90
1383;DHT22;685;47.196;11.880;2022-08-03T04:15:00;17.50;99.90
1383;DHT22;685;47.196;11.880;2022-08-03T04:17:30;17.50;99.90
1383;DHT22;685;47.196;11.880;2022-08-03T04:20:00;17.40;99.90
1383;DHT22;685;47.196;11.880;2022-08-03T04:22:30;17.40;99.90
1383;DHT22;685;47.196;11.880;2022-08-03T04:25:01;17.50;99.90
1383;DHT22;685;47.196;11.880;2022-08-03T04:27:32;17.40;99.90
1383;DHT22;685;47.196;11.880;2022-08-03T04:30:04;17.30;99.90
1383;DHT22;685;47.196;11.880;2022-08-03T04:32:32;17.20;99.90
1383;DHT22;685;47.196;11.880;2022-08-03T04:34:59;17.10;99.90
1383;DHT22;685;47.196;11.880;2022-08-03T04:37:33;17.20;99.90
1383;DHT22;685;47.196;11.880;2022-08-03T04:40:02;17.20;99.90
1383;DHT22;685;47.196;11.880;2022-08-03T04:42:32;17.20;99.90
1383;DHT22;685;47.196;11.880;2022-08-03T04:45:02;17.20;99.90
1383;DHT22;685;47.196;11.880;2022-08-03T04:47:31;17.30;99.90
1383;DHT22;685;47.196;11.880;2022-08-03T04:49:59;17.10;99.90
1383;DHT22;685;47.196;11.880;2022-08-03T04:52:27;17.00;99.90
1383;DHT22;685;47.196;11.880;2022-08-03T04:54:54;17.00;99.90
1383;DHT22;685;47.196;11.880;2022-08-03T04:57:21;17.10;99.90
1383;DHT22;685;47.196;11.880;2022-08-03T04:59:48;17.20;99.90
1383;DHT22;685;47.196;11.880;2022-08-03T05:02:20;17.30;99.90
1383;DHT22;685;47.196;11.880;2022-08-03T05:04:47;17.30;99.90
1383;DHT22;685;47.196;11.880;2022-08-03T05:07:15;17.20;99.90
1383;DHT22;685;47.196;11.880;2022-08-03T05:09:42;17.30;99.90
1383;DHT22;685;47.196;11.880;2022-08-03T05:12:10;17.30;99.90
1383;DHT22;685;47.196;11.880;2022-08-03T05:14:37;17.40;99.90
1383;DHT22;685;47.196;11.880;2022-08-03T05:17:05;17.40;99.90
1383;DHT22;685;47.196;11.880;2022-08-03T05:19:33;17.40;99.90
1383;DHT22;685;47.196;11.880;2022-08-03T05:22:01;17.40;99.90
1383;DHT22;685;47.196;11.880;2022-08-03T05:24:27;17.30;99.90
1383;DHT22;685;47.196;11.880;2022-08-03T05:26:54;17.40;99.90
1383;DHT22;685;47.196;11.880;2022-08-03T05:29:21;17.40;99.90
1383;DHT22;685;47.196;11.880;2022-08-03T05:31:48;17.40;99.90
1383;DHT22;685;47.196;11.880;2022-08-03T05:34:15;17.40;99.90
1383;DHT22;685;47.196;11.880;2022-08-03T05:36:44;17.20;99.90
1383;DHT22;685;47.196;11.880;2022-08-03T05:39:11;17.10;99.90
1383;DHT22;685;47.196;11.880;2022-08-03T05:41:38;16.80;99.90
1383;DHT22;685;47.196;11.880;2022-08-03T05:44:05;16.50;99.90
1383;DHT22;685;47.196;11.880;2022-08-03T05:46:32;16.50;99.90
1383;DHT22;685;47.196;11.880;2022-08-03T05:48:59;16.60;99.90
1383;DHT22;685;47.196;11.880;2022-08-03T05:51:26;16.70;99.90
1383;DHT22;685;47.196;11.880;2022-08-03T05:53:54;16.80;99.90
1383;DHT22;685;47.196;11.880;2022-08-03T05:56:22;16.90;99.90
1383;DHT22;685;47.196;11.880;2022-08-03T05:58:50;17.00;99.90
1383;DHT22;685;47.196;11.880;2022-08-03T06:01:18;17.00;99.90
1383;DHT22;685;47.196;11.880;2022-08-03T06:03:46;17.10;99.90
1383;DHT22;685;47.196;11.880;2022-08-03T06:06:14;17.20;99.90
1383;DHT22;685;47.196;11.880;2022-08-03T06:08:41;17.10;99.90
1383;DHT22;685;47.196;11.880;2022-08-03T06:11:10;17.20;99.90
1383;DHT22;685;47.196;11.880;2022-08-03T06:13:37;17.20;99.90
1383;DHT22;685;47.196;11.880;2022-08-03T06:16:04;17.20;99.90
1383;DHT22;685;47.196;11.880;2022-08-03T06:18:32;17.20;99.90
1383;DHT22;685;47.196;11.880;2022-08-03T06:20:59;17.30;99.90
1383;DHT22;685;47.196;11.880;2022-08-03T06:23:26;17.50;99.90
1383;DHT22;685;47.196;11.880;2022-08-03T06:25:53;17.70;99.90
1383;DHT22;685;47.196;11.880;2022-08-03T06:28:21;18.00;99.90
1383;DHT22;685;47.196;11.880;2022-08-03T06:30:48;18.20;99.90
1383;DHT22;685;47.196;11.880;2022-08-03T06:33:15;18.40;99.90
1383;DHT22;685;47.196;11.880;2022-08-03T06:35:42;18.50;99.90
1383;DHT22;685;47.196;11.880;2022-08-03T06:38:09;18.40;99.90
1383;DHT22;685;47.196;11.880;2022-08-03T06:40:37;18.50;99.90
1383;DHT22;685;47.196;11.880;2022-08-03T06:43:06;18.50;99.90
1383;DHT22;685;47.196;11.880;2022-08-03T06:45:34;18.60;99.90
1383;DHT22;685;47.196;11.880;2022-08-03T06:48:03;18.70;99.90
1383;DHT22;685;47.196;11.880;2022-08-03T06:50:31;18.80;99.90
1383;DHT22;685;47.196;11.880;2022-08-03T06:52:59;19.00;99.90
1383;DHT22;685;47.196;11.880;2022-08-03T06:55:26;19.00;99.90
1383;DHT22;685;47.196;11.880;2022-08-03T06:57:53;19.10;99.90
1383;DHT22;685;47.196;11.880;2022-08-03T07:00:20;19.10;99.90
1383;DHT22;685;47.196;11.880;2022-08-03T07:02:49;19.20;99.90
1383;DHT22;685;47.196;11.880;2022-08-03T07:05:16;19.20;99.90
1383;DHT22;685;47.196;11.880;2022-08-03T07:07:43;19.20;99.90
1383;DHT22;685;47.196;11.880;2022-08-03T07:10:11;19.20;99.90
1383;DHT22;685;47.196;11.880;2022-08-03T07:12:38;19.10;99.90
1383;DHT22;685;47.196;11.880;2022-08-03T07:15:06;19.20;99.90
1383;DHT22;685;47.196;11.880;2022-08-03T07:17:34;19.10;99.90
1383;DHT22;685;47.196;11.880;2022-08-03T07:20:05;19.10;99.90
1383;DHT22;685;47.196;11.880;2022-08-03T07:22:33;19.10;99.90
1383;DHT22;685;47.196;11.880;2022-08-03T07:25:00;19.20;99.90
1383;DHT22;685;47.196;11.880;2022-08-03T07:27:27;19.30;99.90
1383;DHT22;685;47.196;11.880;2022-08-03T07:29:55;19.30;99.90
1383;DHT22;685;47.196;11.880;2022-08-03T07:32:22;19.40;99.90
1383;DHT22;685;47.196;11.880;2022-08-03T07:34:49;19.30;99.90
1383;DHT22;685;47.196;11.880;2022-08-03T07:37:18;19.40;99.90
1383;DHT22;685;47.196;11.880;2022-08-03T07:39:45;19.50;99.90
1383;DHT22;685;47.196;11.880;2022-08-03T07:42:12;19.50;99.90
1383;DHT22;685;47.196;11.880;2022-08-03T07:44:39;19.60;99.90
1383;DHT22;685;47.196;11.880;2022-08-03T07:47:06;19.70;99.90
1383;DHT22;685;47.196;11.880;2022-08-03T07:49:38;19.70;99.90
1383;DHT22;685;47.196;11.880;2022-08-03T07:52:05;19.80;99.90
1383;DHT22;685;47.196;11.880;2022-08-03T07:54:51;19.90;99.90
1383;DHT22;685;47.196;11.880;2022-08-03T07:57:18;19.90;99.90
1383;DHT22;685;47.196;11.880;2022-08-03T07:59:45;20.10;99.90
1383;DHT22;685;47.196;11.880;2022-08-03T08:02:12;20.10;99.90
1383;DHT22;685;47.196;11.880;2022-08-03T08:04:40;20.20;99.90
1383;DHT22;685;47.196;11.880;2022-08-03T08:07:07;20.30;99.90
1383;DHT22;685;47.196;11.880;2022-08-03T08:09:34;20.40;99.90
1383;DHT22;685;47.196;11.880;2022-08-03T08:12:03;20.60;99.90
1383;DHT22;685;47.196;11.880;2022-08-03T08:14:30;20.70;99.90
1383;DHT22;685;47.196;11.880;2022-08-03T08:16:57;20.80;99.90
1383;DHT22;685;47.196;11.880;2022-08-03T08:19:24;21.00;99.90
1383;DHT22;685;47.196;11.880;2022-08-03T08:21:51;21.00;99.90
1383;DHT22;685;47.196;11.880;2022-08-03T08:24:18;21.10;99.90
1383;DHT22;685;47.196;11.880;2022-08-03T08:26:45;21.30;99.90
1383;DHT22;685;47.196;11.880;2022-08-03T08:29:14;21.40;99.90
1383;DHT22;685;47.196;11.880;2022-08-03T08:31:40;21.50;99.90
1383;DHT22;685;47.196;11.880;2022-08-03T08:34:07;21.60;99.90
1383;DHT22;685;47.196;11.880;2022-08-03T08:36:35;21.70;99.90
1383;DHT22;685;47.196;11.880;2022-08-03T08:39:02;21.80;99.90
1383;DHT22;685;47.196;11.880;2022-08-03T08:41:29;21.80;99.90
1383;DHT22;685;47.196;11.880;2022-08-03T08:43:58;22.00;99.90
1383;DHT22;685;47.196;11.880;2022-08-03T08:46:26;22.10;99.90
1383;DHT22;685;47.196;11.880;2022-08-03T08:48:56;22.10;99.90
1383;DHT22;685;47.196;11.880;2022-08-03T08:51:26;22.20;99.90
1383;DHT22;685;47.196;11.880;2022-08-03T08:53:55;22.20;99.90
1383;DHT22;685;47.196;11.880;2022-08-03T08:56:25;22.20;99.90
1383;DHT22;685;47.196;11.880;2022-08-03T08:58:55;22.30;99.90
1383;DHT22;685;47.196;11.880;2022-08-03T09:01:23;22.40;99.90
1383;DHT22;685;47.196;11.880;2022-08-03T09:03:52;22.50;99.90
1383;DHT22;685;47.196;11.880;2022-08-03T09:06:20;22.60;99.90
1383;DHT22;685;47.196;11.880;2022-08-03T09:08:47;22.70;99.90
1383;DHT22;685;47.196;11.880;2022-08-03T09:11:14;22.70;99.90
1383;DHT22;685;47.196;11.880;2022-08-03T09:13:41;22.70;99.90
1383;DHT22;685;47.196;11.880;2022-08-03T09:16:11;22.80;99.90
1383;DHT22;685;47.196;11.880;2022-08-03T09:18:39;22.90;99.90
1383;DHT22;685;47.196;11.880;2022-08-03T09:21:15;23.00;99.90
1383;DHT22;685;47.196;11.880;2022-08-03T09:23:46;23.00;99.90
1383;DHT22;685;47.196;11.880;2022-08-03T09:26:20;23.10;99.90
1383;DHT22;685;47.196;11.880;2022-08-03T09:28:54;23.10;99.90
1383;DHT22;685;47.196;11.880;2022-08-03T09:31:33;23.00;99.90
1383;DHT22;685;47.196;11.880;2022-08-03T09:34:02;23.00;99.90
1383;DHT22;685;47.196;11.880;2022-08-03T09:36:38;23.00;99.90
1383;DHT22;685;47.196;11.880;2022-08-03T09:39:07;23.10;99.90
1383;DHT22;685;47.196;11.880;2022-08-03T09:41:36;23.10;99.90
1383;DHT22;685;47.196;11.880;2022-08-03T09:44:04;23.10;99.90
1383;DHT22;685;47.196;11.880;2022-08-03T09:46:46;23.20;99.90
1383;DHT22;685;47.196;11.880;2022-08-03T09:49:13;23.30;99.90
1383;DHT22;685;47.196;11.880;2022-08-03T09:51:42;23.30;99.90
1383;DHT22;685;47.196;11.880;2022-08-03T09:54:09;23.40;99.90
1383;DHT22;685;47.196;11.880;2022-08-03T09:56:41;23.40;99.90
1383;DHT22;685;47.196;11.880;2022-08-03T09:59:09;23.60;99.90
1383;DHT22;685;47.196;11.880;2022-08-03T10:01:37;23.60;99.90
1383;DHT22;685;47.196;11.880;2022-08-03T10:04:10;23.60;99.90
1383;DHT22;685;47.196;11.880;2022-08-03T10:06:38;23.60;99.90
1383;DHT22;685;47.196;11.880;2022-08-03T10:09:08;23.60;99.90
1383;DHT22;685;47.196;11.880;2022-08-03T10:11:36;23.60;99.90
1383;DHT22;685;47.196;11.880;2022-08-03T10:14:04;23.70;99.90
1383;DHT22;685;47.196;11.880;2022-08-03T10:16:33;23.70;99.90
1383;DHT22;685;47.196;11.880;2022-08-03T10:19:02;23.80;99.90
1383;DHT22;685;47.196;11.880;2022-08-03T10:21:32;23.80;99.90
1383;DHT22;685;47.196;11.880;2022-08-03T10:24:02;23.90;99.90
1383;DHT22;685;47.196;11.880;2022-08-03T10:26:33;23.90;99.90
1383;DHT22;685;47.196;11.880;2022-08-03T10:29:03;24.00;99.90
1383;DHT22;685;47.196;11.880;2022-08-03T10:31:37;24.10;99.90
1383;DHT22;685;47.196;11.880;2022-08-03T10:34:10;24.20;99.90
1383;DHT22;685;47.196;11.880;2022-08-03T10:36:39;24.30;99.90
1383;DHT22;685;47.196;11.880;2022-08-03T10:39:07;24.30;99.90
1383;DHT22;685;47.196;11.880;2022-08-03T10:41:39;24.30;99.90
1383;DHT22;685;47.196;11.880;2022-08-03T10:44:09;24.40;99.90
1383;DHT22;685;47.196;11.880;2022-08-03T10:46:38;24.40;99.90
1383;DHT22;685;47.196;11.880;2022-08-03T10:49:06;24.50;99.90
1383;DHT22;685;47.196;11.880;2022-08-03T10:51:34;24.50;99.90
1383;DHT22;685;47.196;11.880;2022-08-03T10:54:01;24.70;99.90
1383;DHT22;685;47.196;11.880;2022-08-03T10:56:39;24.60;99.90
1383;DHT22;685;47.196;11.880;2022-08-03T10:59:56;24.80;99.90
1383;DHT22;685;47.196;11.880;2022-08-03T11:03:01;24.90;99.90
1383;DHT22;685;47.196;11.880;2022-08-03T11:05:29;25.00;99.90
1383;DHT22;685;47.196;11.880;2022-08-03T11:11:02;25.10;99.90
1383;DHT22;685;47.196;11.880;2022-08-03T11:14:04;25.20;99.90
1383;DHT22;685;47.196;11.880;2022-08-03T11:16:34;25.30;99.90
1383;DHT22;685;47.196;11.880;2022-08-03T11:19:02;25.40;99.90
1383;DHT22;685;47.196;11.880;2022-08-03T11:21:54;25.50;99.90
1383;DHT22;685;47.196;11.880;2022-08-03T11:24:55;25.60;99.90
1383;DHT22;685;47.196;11.880;2022-08-03T11:27:23;25.60;99.90
1383;DHT22;685;47.196;11.880;2022-08-03T11:29:57;25.50;99.90
1383;DHT22;685;47.196;11.880;2022-08-03T11:32:53;25.70;99.90
1383;DHT22;685;47.196;11.880;2022-08-03T11:35:23;25.90;99.90
1383;DHT22;685;47.196;11.880;2022-08-03T11:38:08;25.90;99.90
1383;DHT22;685;47.196;11.880;2022-08-03T11:40:38;25.90;99.90
1383;DHT22;685;47.196;11.880;2022-08-03T11:43:07;25.90;99.90
1383;DHT22;685;47.196;11.880;2022-08-03T11:45:36;26.10;99.90
1383;DHT22;685;47.196;11.880;2022-08-03T11:48:14;26.10;99.90
1383;DHT22;685;47.196;11.880;2022-08-03T11:50:42;26.20;99.90
1383;DHT22;685;47.196;11.880;2022-08-03T11:53:14;26.30;99.90
1383;DHT22;685;47.196;11.880;2022-08-03T11:55:42;26.40;99.90
1383;DHT22;685;47.196;11.880;2022-08-03T11:58:17;26.30;99.90
1383;DHT22;685;47.196;11.880;2022-08-03T12:00:46;26.30;99.90
1383;DHT22;685;47.196;11.880;2022-08-03T12:03:15;26.30;99.90
1383;DHT22;685;47.196;11.880;2022-08-03T12:05:45;26.30;99.90
1383;DHT22;685;47.196;11.880;2022-08-03T12:08:15;26.40;99.90
1383;DHT22;685;47.196;11.880;2022-08-03T12:10:47;26.30;99.90
1383;DHT22;685;47.196;11.880;2022-08-03T12:13:16;26.40;99.90
1383;DHT22;685;47.196;11.880;2022-08-03T12:15:43;26.50;99.90
1383;DHT22;685;47.196;11.880;2022-08-03T12:18:18;26.60;99.90
1383;DHT22;685;47.196;11.880;2022-08-03T12:20:46;26.70;99.90
1383;DHT22;685;47.196;11.880;2022-08-03T12:23:13;26.70;99.90
1383;DHT22;685;47.196;11.880;2022-08-03T12:25:42;26.80;99.90
1383;DHT22;685;47.196;11.880;2022-08-03T12:28:14;26.90;99.90
1383;DHT22;685;47.196;11.880;2022-08-03T12:30:44;26.90;99.90
1383;DHT22;685;47.196;11.880;2022-08-03T12:33:18;26.90;99.90
1383;DHT22;685;47.196;11.880;2022-08-03T12:35:47;27.00;99.90
1383;DHT22;685;47.196;11.880;2022-08-03T12:38:19;27.00;99.90
1383;DHT22;685;47.196;11.880;2022-08-03T12:40:55;27.00;99.90
1383;DHT22;685;47.196;11.880;2022-08-03T12:43:22;27.00;99.90
1383;DHT22;685;47.196;11.880;2022-08-03T12:45:51;27.00;99.90
1383;DHT22;685;47.196;11.880;2022-08-03T12:48:19;27.00;99.90
1383;DHT22;685;47.196;11.880;2022-08-03T12:50:46;27.00;99.90
1383;DHT22;685;47.196;11.880;2022-08-03T12:53:27;27.10;99.90
1383;DHT22;685;47.196;11.880;2022-08-03T12:56:00;27.20;99.90
1383;DHT22;685;47.196;11.880;2022-08-03T12:58:29;27.10;99.90
1383;DHT22;685;47.196;11.880;2022-08-03T13:00:58;27.20;99.90
1383;DHT22;685;47.196;11.880;2022-08-03T13:03:26;27.30;99.90
1383;DHT22;685;47.196;11.880;2022-08-03T13:05:53;27.20;99.90
1383;DHT22;685;47.196;11.880;2022-08-03T13:08:23;27.30;99.90
1383;DHT22;685;47.196;11.880;2022-08-03T13:10:50;27.20;99.90
1383;DHT22;685;47.196;11.880;2022-08-03T13:13:18;27.30;99.90
1383;DHT22;685;47.196;11.880;2022-08-03T13:15:46;27.30;99.90
1383;DHT22;685;47.196;11.880;2022-08-03T13:18:13;27.40;99.90
1383;DHT22;685;47.196;11.880;2022-08-03T13:20:41;27.30;99.90
1383;DHT22;685;47.196;11.880;2022-08-03T13:23:08;27.40;99.90
1383;DHT22;685;47.196;11.880;2022-08-03T13:25:35;27.50;99.90
1383;DHT22;685;47.196;11.880;2022-08-03T13:28:02;27.60;99.90
1383;DHT22;685;47.196;11.880;2022-08-03T13:30:31;27.60;99.90
1383;DHT22;685;47.196;11.880;2022-08-03T13:32:58;27.60;99.90
1383;DHT22;685;47.196;11.880;2022-08-03T13:35:25;27.70;99.90
1383;DHT22;685;47.196;11.880;2022-08-03T13:37:53;27.80;99.90
1383;DHT22;685;47.196;11.880;2022-08-03T13:40:20;27.90;99.90
1383;DHT22;685;47.196;11.880;2022-08-03T13:42:47;27.90;99.90
1383;DHT22;685;47.196;11.880;2022-08-03T13:45:14;27.80;99.90
1383;DHT22;685;47.196;11.880;2022-08-03T13:47:41;27.80;99.90
1383;DHT22;685;47.196;11.880;2022-08-03T13:50:08;27.90;99.90
1383;DHT22;685;47.196;11.880;2022-08-03T13:52:35;27.90;99.90
1383;DHT22;685;47.196;11.880;2022-08-03T13:55:05;27.90;99.90
1383;DHT22;685;47.196;11.880;2022-08-03T13:57:32;27.90;99.90
1383;DHT22;685;47.196;11.880;2022-08-03T14:00:00;27.90;99.90
1383;DHT22;685;47.196;11.880;2022-08-03T14:02:27;27.90;99.90
1383;DHT22;685;47.196;11.880;2022-08-03T14:04:54;28.00;99.90
1383;DHT22;685;47.196;11.880;2022-08-03T14:07:21;28.00;99.90
1383;DHT22;685;47.196;11.880;2022-08-03T14:09:48;28.00;99.90
1383;DHT22;685;47.196;11.880;2022-08-03T14:12:16;28.00;99.90
1383;DHT22;685;47.196;11.880;2022-08-03T14:14:43;28.10;99.90
1383;DHT22;685;47.196;11.880;2022-08-03T14:17:10;28.20;99.90
1383;DHT22;685;47.196;11.880;2022-08-03T14:19:37;28.30;98.10
1383;DHT22;685;47.196;11.880;2022-08-03T14:22:04;28.30;99.90
1383;DHT22;685;47.196;11.880;2022-08-03T14:24:31;28.30;97.10
1383;DHT22;685;47.196;11.880;2022-08-03T14:26:58;28.30;97.80
1383;DHT22;685;47.196;11.880;2022-08-03T14:29:27;28.30;98.20
1383;DHT22;685;47.196;11.880;2022-08-03T14:31:54;28.30;98.90
1383;DHT22;685;47.196;11.880;2022-08-03T14:34:21;28.20;97.00
1383;DHT22;685;47.196;11.880;2022-08-03T14:36:48;28.20;98.10
1383;DHT22;685;47.196;11.880;2022-08-03T14:39:15;28.20;99.00
1383;DHT22;685;47.196;11.880;2022-08-03T14:41:42;28.30;98.80
1383;DHT22;685;47.196;11.880;2022-08-03T14:44:09;28.30;97.50
1383;DHT22;685;47.196;11.880;2022-08-03T14:46:37;28.30;98.70
1383;DHT22;685;47.196;11.880;2022-08-03T14:49:04;28.40;98.50
1383;DHT22;685;47.196;11.880;2022-08-03T14:51:31;28.40;96.30
1383;DHT22;685;47.196;11.880;2022-08-03T14:53:58;28.40;97.00
1383;DHT22;685;47.196;11.880;2022-08-03T14:56:25;28.50;95.20
1383;DHT22;685;47.196;11.880;2022-08-03T14:58:52;28.50;95.50
1383;DHT22;685;47.196;11.880;2022-08-03T15:01:19;28.50;93.70
1383;DHT22;685;47.196;11.880;2022-08-03T15:03:47;28.60;91.10
1383;DHT22;685;47.196;11.880;2022-08-03T15:06:14;28.70;94.80
1383;DHT22;685;47.196;11.880;2022-08-03T15:08:41;28.80;94.10
1383;DHT22;685;47.196;11.880;2022-08-03T15:11:08;28.70;96.10
1383;DHT22;685;47.196;11.880;2022-08-03T15:13:35;28.80;92.90
1383;DHT22;685;47.196;11.880;2022-08-03T15:16:02;28.80;95.20
1383;DHT22;685;47.196;11.880;2022-08-03T15:18:29;28.90;95.70
1383;DHT22;685;47.196;11.880;2022-08-03T15:20:58;28.90;95.00
1383;DHT22;685;47.196;11.880;2022-08-03T15:23:25;29.00;94.00
1383;DHT22;685;47.196;11.880;2022-08-03T15:25:52;29.10;94.10
1383;DHT22;685;47.196;11.880;2022-08-03T15:28:19;29.10;95.10
1383;DHT22;685;47.196;11.880;2022-08-03T15:30:46;28.90;94.60
1383;DHT22;685;47.196;11.880;2022-08-03T15:33:13;28.80;98.10
1383;DHT22;685;47.196;11.880;2022-08-03T15:35:40;28.80;97.50
1383;DHT22;685;47.196;11.880;2022-08-03T15:38:08;28.80;95.60
1383;DHT22;685;47.196;11.880;2022-08-03T15:40:35;28.80;95.30
1383;DHT22;685;47.196;11.880;2022-08-03T15:43:02;28.80;95.20
1383;DHT22;685;47.196;11.880;2022-08-03T15:45:29;28.80;95.60
1383;DHT22;685;47.196;11.880;2022-08-03T15:47:56;28.80;96.60
1383;DHT22;685;47.196;11.880;2022-08-03T15:50:23;28.70;96.10
1383;DHT22;685;47.196;11.880;2022-08-03T15:52:50;28.70;96.20
1383;DHT22;685;47.196;11.880;2022-08-03T15:55:19;28.60;97.40
1383;DHT22;685;47.196;11.880;2022-08-03T15:57:46;28.60;97.20
1383;DHT22;685;47.196;11.880;2022-08-03T16:00:14;28.70;95.70
1383;DHT22;685;47.196;11.880;2022-08-03T16:02:41;28.80;95.30
1383;DHT22;685;47.196;11.880;2022-08-03T16:05:08;28.80;97.50
1383;DHT22;685;47.196;11.880;2022-08-03T16:07:35;28.80;96.30
1383;DHT22;685;47.196;11.880;2022-08-03T16:10:11;28.80;96.70
1383;DHT22;685;47.196;11.880;2022-08-03T16:12:40;28.80;95.10
1383;DHT22;685;47.196;11.880;2022-08-03T16:15:08;28.70;97.40
1383;DHT22;685;47.196;11.880;2022-08-03T16:17:35;28.60;98.00